Time;durP1;ratioP1;P1;durP2;ratioP2;P2;SDS_P1;SDS_P2;PMS_P1;PMS_P2;Temp;Humidity;BMP_temperature;BMP_pressure;BME280_temperature;BME280_humidity;BME280_pressure;Samples;Min_cycle;Max_cycle;Signal;HPM_P1;HPM_P2
2022/07/20 00:01:31;;;;;;;5.03;2.50;;;;;;;21.09;58.34;99934.88;5069315;28;20677;-56
2022/07/20 00:03:58;;;;;;;2.65;2.53;;;;;;;21.01;58.36;99932.72;5069131;28;20295;-56
2022/07/20 00:06:25;;;;;;;2.50;2.30;;;;;;;21.18;58.26;99950.13;5069504;28;20607;-55
2022/07/20 00:11:36;;;;;;;2.50;2.30;;;;;;;21.01;58.61;99953.81;5069275;28;20688;-56
2022/07/20 00:14:05;;;;;;;3.78;2.60;;;;;;;20.94;59.33;99956.97;5069209;28;20206;-57
2022/07/20 00:16:34;;;;;;;6.13;2.85;;;;;;;20.85;59.76;99961.06;5088667;28;20199;-56
2022/07/20 00:19:01;;;;;;;3.20;2.40;;;;;;;20.79;59.94;99958.78;5109674;28;20209;-57
2022/07/20 00:21:28;;;;;;;3.67;2.85;;;;;;;20.90;59.20;99966.00;5110003;28;20230;-55
2022/07/20 00:23:55;;;;;;;2.50;2.40;;;;;;;20.94;59.00;99956.97;5109787;28;20191;-57
2022/07/20 00:26:22;;;;;;;2.60;2.40;;;;;;;20.82;59.79;99963.88;5109715;28;20195;-56
2022/07/20 00:28:50;;;;;;;3.42;2.50;;;;;;;20.77;60.40;99960.66;5109751;28;20672;-56
2022/07/20 00:31:19;;;;;;;3.63;2.38;;;;;;;20.75;60.82;99962.59;5109450;28;20586;-55
2022/07/20 00:33:47;;;;;;;4.68;2.20;;;;;;;20.70;60.93;99964.66;5109273;28;20293;-56
2022/07/20 00:36:14;;;;;;;3.13;2.20;;;;;;;20.71;61.06;99966.34;5109627;28;20203;-55
2022/07/20 00:38:40;;;;;;;2.95;2.67;;;;;;;20.76;60.86;99961.63;5109624;28;20194;-55
2022/07/20 00:41:07;;;;;;;2.58;2.40;;;;;;;20.83;60.87;99972.63;5109489;28;20202;-56
2022/07/20 00:44:00;;;;;;;3.30;2.40;;;;;;;20.85;60.73;99978.66;5109443;28;20218;-55
2022/07/20 00:46:30;;;;;;;6.82;2.60;;;;;;;20.81;60.93;99975.38;5109784;28;20290;-56
2022/07/20 00:48:57;;;;;;;4.65;2.78;;;;;;;20.74;62.24;99973.22;5109477;28;20665;-55
2022/07/20 00:51:25;;;;;;;5.32;2.47;;;;;;;20.72;62.96;99973.31;5109596;28;20213;-55
2022/07/20 00:53:52;;;;;;;2.83;2.40;;;;;;;20.62;63.77;99961.66;5109436;28;20195;-55
2022/07/20 00:56:20;;;;;;;3.75;3.03;;;;;;;20.57;64.25;99961.09;5109389;28;20294;-56
2022/07/20 00:58:48;;;;;;;4.20;3.22;;;;;;;20.57;64.66;99959.31;5109503;28;20724;-56
2022/07/20 01:01:16;;;;;;;4.20;2.90;;;;;;;20.50;65.19;99957.16;5109652;28;20672;-55
2022/07/20 01:03:45;;;;;;;3.15;2.70;;;;;;;20.41;65.98;99955.94;5113304;28;20591;-55
2022/07/20 01:06:12;;;;;;;7.57;2.90;;;;;;;20.36;65.81;99949.25;5112967;28;20198;-55
2022/07/20 01:08:39;;;;;;;6.82;3.45;;;;;;;20.41;65.64;99955.94;5112832;28;20218;-55
2022/07/20 01:11:06;;;;;;;4.53;2.92;;;;;;;20.46;66.09;99950.38;5112779;28;20293;-55
2022/07/20 01:13:34;;;;;;;6.63;3.05;;;;;;;20.33;66.48;99966.06;5112685;28;20220;-55
2022/07/20 01:16:01;;;;;;;4.28;3.30;;;;;;;20.26;67.04;99955.06;5113105;28;20194;-55
2022/07/20 01:18:28;;;;;;;3.20;2.97;;;;;;;20.16;67.61;99943.38;5113124;28;20226;-55
2022/07/20 01:21:01;;;;;;;2.63;2.50;;;;;;;20.20;68.16;99952.78;5112851;28;20579;-55
2022/07/20 01:23:28;;;;;;;3.15;2.88;;;;;;;20.28;68.08;99937.38;5112718;28;20202;-57
2022/07/20 01:25:56;;;;;;;3.08;2.72;;;;;;;20.16;68.41;99932.84;5112539;28;20195;-57
2022/07/20 01:28:23;;;;;;;3.83;3.17;;;;;;;20.25;68.41;99949.88;5112629;28;20233;-57
2022/07/20 01:30:50;;;;;;;5.88;2.78;;;;;;;20.21;68.77;99949.22;5112631;28;20234;-57
2022/07/20 01:33:17;;;;;;;4.35;2.70;;;;;;;20.11;69.41;99949.88;5112636;28;20220;-57
2022/07/20 01:35:44;;;;;;;3.00;2.80;;;;;;;20.15;69.19;99946.13;5112306;28;20226;-58
2022/07/20 01:38:12;;;;;;;4.30;3.17;;;;;;;20.22;68.80;99947.41;5093015;28;20282;-55
2022/07/20 01:40:39;;;;;;;3.72;2.72;;;;;;;20.24;68.34;99954.31;5072744;28;20210;-55
2022/07/20 01:43:06;;;;;;;3.42;3.13;;;;;;;20.29;67.61;99941.69;5071720;28;20202;-55
2022/07/20 01:45:33;;;;;;;4.43;3.00;;;;;;;20.27;67.79;99956.75;5076566;28;20195;-56
2022/07/20 01:48:00;;;;;;;3.15;2.95;;;;;;;20.24;67.96;99946.41;5080169;28;20252;-56
2022/07/20 01:50:27;;;;;;;5.00;3.67;;;;;;;20.19;68.34;99948.50;5089147;28;20199;-58
2022/07/20 01:52:54;;;;;;;7.28;3.33;;;;;;;20.17;68.22;99955.63;5092006;28;20584;-57
2022/07/20 01:55:23;;;;;;;3.92;3.10;;;;;;;20.13;68.54;99948.84;5091915;28;20217;-58
2022/07/20 01:57:50;;;;;;;4.88;3.20;;;;;;;20.06;68.86;99947.53;5091863;28;20199;-56
2022/07/20 02:00:17;;;;;;;3.70;2.90;;;;;;;20.17;68.45;99957.41;5091660;28;20191;-57
2022/07/20 02:02:44;;;;;;;6.43;3.67;;;;;;;20.14;68.79;99955.81;5092012;28;20202;-56
2022/07/20 02:05:11;;;;;;;3.50;3.20;;;;;;;20.08;69.30;99945.66;5091238;28;20199;-57
2022/07/20 02:07:39;;;;;;;3.63;3.30;;;;;;;20.09;69.32;99943.88;5091375;28;20226;-57
2022/07/20 02:10:08;;;;;;;3.80;3.50;;;;;;;20.05;69.60;99951.09;5091431;28;20218;-57
2022/07/20 02:12:37;;;;;;;5.10;3.63;;;;;;;19.98;69.88;99944.50;5091458;28;20583;-57
2022/07/20 02:15:05;;;;;;;3.85;3.47;;;;;;;19.81;70.78;99948.16;5091202;28;20206;-57
2022/07/20 02:17:32;;;;;;;4.85;3.95;;;;;;;19.82;70.77;99949.00;5091362;28;20206;-57
2022/07/20 02:19:59;;;;;;;3.67;3.47;;;;;;;19.78;71.00;99953.59;5091184;28;20580;-57
2022/07/20 02:22:26;;;;;;;9.03;4.73;;;;;;;19.79;71.17;99949.19;5091533;28;20195;-57
2022/07/20 02:24:53;;;;;;;6.22;4.25;;;;;;;19.68;71.57;99946.34;5091005;28;20286;-55
2022/07/20 02:27:20;;;;;;;4.30;3.58;;;;;;;19.67;71.72;99950.75;5090865;28;20227;-56
2022/07/20 02:29:48;;;;;;;7.15;3.85;;;;;;;19.72;71.44;99946.09;5091152;28;20562;-56
2022/07/20 02:32:15;;;;;;;4.68;4.28;;;;;;;19.67;71.89;99942.00;5090925;28;20195;-56
2022/07/20 02:34:42;;;;;;;7.38;4.15;;;;;;;19.70;71.75;99944.47;5091213;28;20198;-56
2022/07/20 02:37:09;;;;;;;5.05;3.17;;;;;;;19.57;72.63;99944.34;5090778;28;20205;-57
2022/07/20 02:39:36;;;;;;;8.27;3.97;;;;;;;19.46;73.16;99942.31;5090846;28;20563;-57
2022/07/20 02:42:03;;;;;;;3.50;3.30;;;;;;;19.33;73.65;99935.22;5090574;28;20199;-57
2022/07/20 02:44:30;;;;;;;4.00;3.70;;;;;;;19.39;73.47;99940.13;5090477;28;20290;-57
2022/07/20 02:46:58;;;;;;;7.78;3.85;;;;;;;19.43;73.27;99945.13;5090651;28;20253;-57
2022/07/20 02:49:25;;;;;;;4.10;3.67;;;;;;;19.45;73.38;99945.03;5090789;28;20223;-56
2022/07/20 02:51:52;;;;;;;4.60;3.90;;;;;;;19.50;73.29;99943.03;5090616;28;20221;-57
2022/07/20 02:54:19;;;;;;;5.05;3.67;;;;;;;19.45;73.68;99945.88;5090470;28;20205;-58
2022/07/20 02:56:46;;;;;;;6.25;4.05;;;;;;;19.36;73.98;99946.41;5090436;28;20202;-56
2022/07/20 02:59:12;;;;;;;6.53;3.80;;;;;;;19.34;74.21;99942.19;5090057;28;20616;-55
2022/07/20 03:01:39;;;;;;;3.78;3.38;;;;;;;19.29;74.46;99954.78;5090379;28;20687;-56
2022/07/20 03:04:08;;;;;;;4.50;3.60;;;;;;;19.34;74.16;99952.69;5070149;28;20234;-55
2022/07/20 03:06:35;;;;;;;4.25;3.47;;;;;;;19.38;73.79;99949.81;5069885;28;20612;-56
2022/07/20 03:09:02;;;;;;;3.77;3.47;;;;;;;19.34;73.64;99943.03;5069205;28;20319;-56
2022/07/20 03:11:28;;;;;;;4.83;3.43;;;;;;;19.35;73.17;99950.00;5069509;28;20227;-56
2022/07/20 03:13:55;;;;;;;3.47;3.23;;;;;;;19.48;72.77;99950.13;5069268;28;20226;-56
2022/07/20 03:16:22;;;;;;;5.20;3.08;;;;;;;19.51;72.31;99953.47;5069666;28;20289;-55
2022/07/20 03:18:49;;;;;;;3.80;3.50;;;;;;;19.43;72.87;99953.00;5074717;28;20212;-58
2022/07/20 03:21:17;;;;;;;4.47;3.60;;;;;;;19.46;72.80;99952.84;5082817;28;20219;-58
2022/07/20 03:23:44;;;;;;;3.17;2.97;;;;;;;19.55;72.06;99951.47;5077377;28;20220;-58
2022/07/20 03:26:12;;;;;;;4.93;3.33;;;;;;;19.60;71.74;99941.53;5076758;28;20759;-58
2022/07/20 03:28:39;;;;;;;5.05;3.70;;;;;;;19.61;71.70;99945.03;5070366;28;20318;-57
2022/07/20 03:31:06;;;;;;;3.83;3.50;;;;;;;19.60;71.71;99944.19;5076743;28;20704;-55
2022/07/20 03:33:33;;;;;;;5.03;3.13;;;;;;;19.60;71.86;99948.59;5077824;28;20233;-55
2022/07/20 03:36:00;;;;;;;7.20;3.75;;;;;;;19.61;71.43;99942.38;5078905;28;20246;-55
2022/07/20 03:38:28;;;;;;;5.40;3.30;;;;;;;19.67;71.23;99940.22;5080321;28;20227;-55
2022/07/20 03:40:55;;;;;;;3.45;3.10;;;;;;;19.65;71.04;99951.78;5079103;28;20215;-55
2022/07/20 03:43:25;;;;;;;7.82;3.47;;;;;;;19.59;70.74;99937.22;5088536;28;20245;-54
2022/07/20 03:45:52;;;;;;;4.25;3.88;;;;;;;19.83;69.70;99941.03;5087553;28;20231;-55
2022/07/20 03:48:19;;;;;;;3.83;3.30;;;;;;;19.85;69.40;99947.06;5067900;28;20349;-58
2022/07/20 03:50:46;;;;;;;4.10;3.70;;;;;;;19.92;68.77;99953.63;5105219;28;20248;-55
2022/07/20 03:53:13;;;;;;;15.50;5.55;;;;;;;20.01;68.75;99944.31;5108682;28;20309;-55
2022/07/20 03:55:41;;;;;;;7.88;3.88;;;;;;;20.07;68.43;99956.28;5102438;28;20219;-55
2022/07/20 03:58:08;;;;;;;6.20;4.10;;;;;;;20.53;66.48;99952.53;5086643;28;20627;-55
2022/07/20 04:00:35;;;;;;;6.25;3.60;;;;;;;21.84;61.29;99962.41;5070331;28;20688;-56
2022/07/20 04:03:02;;;;;;;11.82;3.63;;;;;;;23.45;54.87;99973.84;5070089;28;20230;-56
2022/07/20 04:05:29;;;;;;;4.60;3.90;;;;;;;25.16;49.67;99967.50;5067436;28;20228;-57
2022/07/20 04:07:56;;;;;;;4.00;3.70;;;;;;;26.56;45.33;99976.00;5068593;28;20238;-56
2022/07/20 04:10:23;;;;;;;3.65;3.35;;;;;;;27.40;43.01;99983.50;5068529;28;20732;-57
2022/07/20 04:12:52;;;;;;;4.53;3.60;;;;;;;28.42;40.45;99986.44;5068726;28;20315;-57
2022/07/20 04:15:19;;;;;;;4.13;3.70;;;;;;;29.27;38.44;99978.09;5073444;28;20219;-57
2022/07/20 04:17:45;;;;;;;5.88;3.42;;;;;;;30.03;36.70;99990.97;5078312;28;20234;-57
2022/07/20 04:20:12;;;;;;;10.32;3.80;;;;;;;30.43;35.60;99993.06;5080162;28;20227;-57
2022/07/20 04:22:39;;;;;;;3.97;3.60;;;;;;;31.19;34.53;100001.94;5077613;28;20215;-57
2022/07/20 04:25:07;;;;;;;7.43;3.95;;;;;;;31.02;34.43;100001.03;5078206;28;20246;-56
2022/07/20 04:27:34;;;;;;;11.77;5.50;;;;;;;31.78;33.36;99991.97;5078266;28;20211;-56
2022/07/20 04:30:02;;;;;;;11.85;6.65;;;;;;;31.81;33.10;99996.16;5076981;28;20227;-55
2022/07/20 04:32:30;;;;;;;6.43;3.55;;;;;;;31.83;32.97;99994.16;5077599;28;20687;-57
2022/07/20 04:34:57;;;;;;;4.70;4.30;;;;;;;32.42;31.86;100000.94;5076207;28;20210;-55
2022/07/20 04:37:24;;;;;;;5.00;4.25;;;;;;;33.43;30.59;100004.50;5070328;28;20297;-56
2022/07/20 04:39:51;;;;;;;3.33;3.00;;;;;;;33.57;30.49;100002.88;5072381;28;20206;-55
2022/07/20 04:42:18;;;;;;;6.53;4.00;;;;;;;33.81;30.36;100000.03;5072524;28;20196;-57
2022/07/20 04:44:45;;;;;;;6.70;5.22;;;;;;;34.67;28.87;100003.16;5074006;28;20200;-57
2022/07/20 04:47:13;;;;;;;4.80;4.35;;;;;;;34.89;28.83;100010.31;5089135;28;20231;-57
2022/07/20 04:49:40;;;;;;;7.85;6.97;;;;;;;35.34;27.86;100008.34;5092770;28;20219;-57
2022/07/20 04:52:07;;;;;;;5.28;3.35;;;;;;;36.10;27.51;100007.63;5093244;28;20739;-56
2022/07/20 04:54:34;;;;;;;6.65;5.78;;;;;;;36.11;26.86;100006.59;5092773;28;20281;-56
2022/07/20 04:57:01;;;;;;;4.13;3.20;;;;;;;36.50;26.53;100006.00;5092734;28;20206;-56
2022/07/20 04:59:28;;;;;;;6.70;4.72;;;;;;;36.56;26.51;100005.22;5083405;28;20285;-56
2022/07/20 05:01:55;;;;;;;4.93;3.60;;;;;;;36.81;26.18;100004.72;5071919;28;20223;-55
2022/07/20 05:04:23;;;;;;;8.57;4.38;;;;;;;37.12;25.57;100010.47;5071695;28;20219;-56
2022/07/20 05:06:50;;;;;;;5.57;4.20;;;;;;;37.31;25.56;100001.59;5071954;28;20224;-56
2022/07/20 05:09:17;;;;;;;8.27;5.10;;;;;;;37.60;25.22;100002.22;5071392;28;20227;-56
2022/07/20 05:11:44;;;;;;;6.20;2.97;;;;;;;38.33;24.22;100005.78;5072439;28;20728;-55
2022/07/20 05:14:11;;;;;;;8.27;3.15;;;;;;;38.93;24.12;100003.72;5072235;28;20199;-57
2022/07/20 05:16:38;;;;;;;4.45;3.58;;;;;;;39.12;23.50;100002.81;5072197;28;20203;-56
2022/07/20 05:19:05;;;;;;;6.57;4.30;;;;;;;39.50;23.16;100003.66;5076873;28;20197;-56
2022/07/20 05:21:34;;;;;;;8.10;4.13;;;;;;;39.87;22.85;100009.22;5072031;28;20202;-57
2022/07/20 05:24:01;;;;;;;7.43;3.22;;;;;;;39.81;22.86;100012.81;5072143;28;20199;-56
2022/07/20 05:26:27;;;;;;;4.85;3.00;;;;;;;39.55;22.86;100014.66;5072352;28;20202;-56
2022/07/20 05:28:54;;;;;;;5.40;4.28;;;;;;;39.73;22.96;100018.53;5071749;28;20219;-56
2022/07/20 05:31:21;;;;;;;7.57;3.50;;;;;;;39.81;22.80;100012.81;5071867;28;20642;-57
2022/07/20 05:33:48;;;;;;;8.60;3.45;;;;;;;39.48;23.44;100005.75;5071833;28;20203;-57
2022/07/20 05:36:15;;;;;;;5.32;3.38;;;;;;;39.69;22.89;100011.84;5071965;28;20690;-57
2022/07/20 05:38:43;;;;;;;4.45;3.20;;;;;;;39.60;23.16;100005.03;5071795;28;20195;-56
2022/07/20 05:41:10;;;;;;;5.43;2.88;;;;;;;39.81;22.84;100013.63;5071898;28;20673;-56
2022/07/20 05:43:37;;;;;;;4.88;3.30;;;;;;;40.42;22.47;100023.75;5071474;28;20203;-57
2022/07/20 05:46:04;;;;;;;7.22;3.15;;;;;;;40.41;22.52;100021.28;5071356;28;20668;-56
2022/07/20 05:48:32;;;;;;;9.13;2.75;;;;;;;40.21;22.43;100019.56;5070767;28;20227;-57
2022/07/20 05:50:59;;;;;;;12.05;3.17;;;;;;;39.90;22.65;100011.50;5071493;28;20200;-57
2022/07/20 05:53:26;;;;;;;8.43;3.17;;;;;;;40.24;22.20;100008.22;5071348;28;20283;-57
2022/07/20 05:55:54;;;;;;;5.38;3.13;;;;;;;39.73;22.63;100005.75;5071383;28;20366;-57
2022/07/20 05:58:21;;;;;;;5.13;2.65;;;;;;;39.43;22.86;100008.28;5071231;28;20198;-56
2022/07/20 06:00:48;;;;;;;2.67;2.20;;;;;;;38.62;23.67;100013.44;5071180;28;20286;-56
2022/07/20 06:03:15;;;;;;;8.93;3.10;;;;;;;38.64;23.46;100013.22;5071526;28;20275;-57
2022/07/20 06:05:42;;;;;;;10.45;2.85;;;;;;;38.31;23.30;100008.72;5071521;28;20665;-56
2022/07/20 06:08:09;;;;;;;9.02;2.83;;;;;;;38.63;23.06;100003.44;5071021;28;20201;-57
2022/07/20 06:10:37;;;;;;;4.72;2.80;;;;;;;39.11;23.00;100003.88;5071137;28;20618;-57
2022/07/20 06:13:05;;;;;;;3.65;2.65;;;;;;;39.37;22.40;100009.13;5070848;28;20199;-56
2022/07/20 06:15:32;;;;;;;2.35;2.15;;;;;;;39.46;22.83;100010.56;5070959;28;20202;-56
2022/07/20 06:18:00;;;;;;;4.28;2.72;;;;;;;39.58;22.67;100007.97;5070441;28;20286;-55
2022/07/20 06:20:27;;;;;;;5.40;2.72;;;;;;;40.04;22.27;100012.22;5080510;28;20229;-56
2022/07/20 06:22:53;;;;;;;7.47;3.05;;;;;;;39.33;23.09;100007.91;5111359;28;20323;-56
2022/07/20 06:25:21;;;;;;;3.60;3.00;;;;;;;39.08;23.00;100012.44;5109955;28;20191;-56
2022/07/20 06:27:48;;;;;;;5.45;2.53;;;;;;;39.48;23.07;100018.50;5110266;28;20198;-56
2022/07/20 06:30:17;;;;;;;5.95;2.92;;;;;;;39.77;22.49;100011.56;5110663;28;20245;-56
2022/07/20 06:32:44;;;;;;;12.52;3.28;;;;;;;39.97;22.42;100023.13;5110500;28;20204;-56
2022/07/20 06:35:19;;;;;;;2.90;2.67;;;;;;;38.98;23.03;100020.22;5110250;28;20281;-56
2022/07/20 06:37:53;;;;;;;7.03;2.92;;;;;;;38.35;23.82;100012.69;5110619;28;20190;-56
2022/07/20 06:40:21;;;;;;;8.93;3.03;;;;;;;37.96;23.73;100008.09;5110721;28;20204;-56
2022/07/20 06:42:47;;;;;;;6.25;4.30;;;;;;;37.73;24.19;100007.69;5111009;28;20484;-57
2022/07/20 06:45:15;;;;;;;4.78;3.03;;;;;;;37.70;24.69;100002.72;5111252;28;20713;-57
2022/07/20 06:47:43;;;;;;;6.00;2.90;;;;;;;37.22;25.12;99997.41;5110986;28;20318;-58
2022/07/20 06:50:10;;;;;;;3.17;2.60;;;;;;;36.50;25.62;99997.91;5110939;28;20750;-57
2022/07/20 06:52:37;;;;;;;3.28;2.80;;;;;;;36.42;25.54;99997.22;5110843;28;20191;-58
2022/07/20 06:55:05;;;;;;;5.13;2.70;;;;;;;36.49;25.34;99988.13;5110797;28;20255;-57
2022/07/20 06:57:32;;;;;;;4.85;3.90;;;;;;;36.57;25.81;99979.81;5110810;28;20285;-57
2022/07/20 06:59:59;;;;;;;5.80;3.13;;;;;;;36.66;25.70;99984.06;5109973;28;20191;-57
2022/07/20 07:02:26;;;;;;;3.50;3.20;;;;;;;36.49;26.04;99984.56;5110750;28;20194;-58
2022/07/20 07:04:54;;;;;;;6.30;4.65;;;;;;;36.36;25.84;99982.63;5110736;28;20297;-58
2022/07/20 07:07:21;;;;;;;4.72;4.10;;;;;;;36.20;26.39;99988.34;5110541;28;20562;-58
2022/07/20 07:09:48;;;;;;;4.05;3.20;;;;;;;36.24;26.35;99990.47;5110656;28;20226;-58
2022/07/20 07:12:15;;;;;;;6.43;3.85;;;;;;;36.46;26.09;99982.28;5110955;28;20577;-57
2022/07/20 07:14:42;;;;;;;5.47;3.95;;;;;;;36.50;26.01;99980.84;5110612;28;20281;-57
2022/07/20 07:17:09;;;;;;;4.53;3.70;;;;;;;36.32;25.93;99987.63;5110500;28;20206;-56
2022/07/20 07:19:36;;;;;;;7.43;4.25;;;;;;;36.51;26.05;99975.22;5110187;28;20286;-55
2022/07/20 07:22:04;;;;;;;4.20;3.65;;;;;;;36.71;25.90;99976.19;5110300;28;20599;-55
2022/07/20 07:24:31;;;;;;;9.93;3.72;;;;;;;36.78;25.87;99973.53;5108262;28;20226;-55
2022/07/20 07:26:58;;;;;;;7.10;2.85;;;;;;;36.88;25.45;99973.13;5086524;28;20223;-55
2022/07/20 07:29:26;;;;;;;5.45;2.70;;;;;;;36.33;26.17;99972.25;5089361;28;20230;-55
2022/07/20 07:31:53;;;;;;;5.38;2.47;;;;;;;36.34;26.29;99963.09;5089487;28;20231;-56
2022/07/20 07:34:20;;;;;;;8.90;3.08;;;;;;;37.11;25.99;99959.25;5104867;28;20270;-58
2022/07/20 07:36:47;;;;;;;4.25;3.03;;;;;;;37.35;25.51;99970.34;5109979;28;20314;-56
2022/07/20 07:39:15;;;;;;;9.05;3.00;;;;;;;37.60;25.07;99970.56;5109252;28;20214;-55
2022/07/20 07:41:42;;;;;;;7.40;2.22;;;;;;;37.23;25.17;99969.28;5109680;28;20275;-57
2022/07/20 07:44:09;;;;;;;9.65;2.50;;;;;;;37.53;25.16;99975.16;5109459;28;20301;-57
2022/07/20 07:46:36;;;;;;;3.95;2.40;;;;;;;37.87;24.92;99974.13;5109568;28;20228;-57
2022/07/20 07:49:03;;;;;;;5.82;2.50;;;;;;;38.04;24.64;99969.09;5109124;28;20855;-57
2022/07/20 07:51:30;;;;;;;5.93;2.42;;;;;;;38.46;23.68;99979.47;5109723;28;20218;-57
2022/07/20 07:53:58;;;;;;;3.20;2.00;;;;;;;38.66;23.38;99973.16;5109173;28;20232;-57
2022/07/20 07:56:26;;;;;;;4.15;2.03;;;;;;;38.81;22.65;99979.97;5109536;28;20684;-57
2022/07/20 07:58:53;;;;;;;4.18;2.55;;;;;;;39.14;22.69;99968.13;5109394;28;20312;-57
2022/07/20 08:01:20;;;;;;;7.90;2.15;;;;;;;39.86;22.79;99974.94;5109527;28;20304;-57
2022/07/20 08:03:47;;;;;;;4.75;1.95;;;;;;;40.53;21.28;99967.75;5098320;28;20230;-58
2022/07/20 08:06:14;;;;;;;4.60;2.67;;;;;;;40.57;20.76;99963.50;5089072;28;20223;-58
2022/07/20 08:08:41;;;;;;;5.88;2.08;;;;;;;40.69;20.86;99961.69;5088944;28;20758;-57
2022/07/20 08:11:08;;;;;;;2.50;2.00;;;;;;;40.84;20.92;99962.16;5090279;28;20230;-58
2022/07/20 08:13:36;;;;;;;4.28;1.92;;;;;;;40.87;20.46;99964.38;5093221;28;20236;-57
2022/07/20 08:16:03;;;;;;;3.72;1.90;;;;;;;40.95;20.38;99961.38;5073152;28;20261;-56
2022/07/20 08:18:30;;;;;;;6.20;2.20;;;;;;;41.37;20.36;99950.50;5073576;28;20231;-56
2022/07/20 08:20:57;;;;;;;4.32;2.10;;;;;;;42.06;20.20;99953.53;5073502;28;20298;-56
2022/07/20 08:23:24;;;;;;;1.92;1.83;;;;;;;42.30;19.21;99953.28;5073335;28;20201;-57
2022/07/20 08:25:51;;;;;;;4.03;2.30;;;;;;;41.57;19.30;99947.47;5073408;28;20203;-57
2022/07/20 08:28:20;;;;;;;3.30;1.98;;;;;;;41.22;19.33;99945.47;5073228;28;20594;-56
2022/07/20 08:30:50;;;;;;;2.13;2.03;;;;;;;40.80;20.14;99936.44;5072888;28;20219;-59
2022/07/20 08:33:18;;;;;;;4.72;1.85;;;;;;;41.05;19.65;99949.91;5072996;28;20199;-56
2022/07/20 08:35:46;;;;;;;2.45;2.17;;;;;;;40.69;19.39;99942.63;5073251;28;20888;-55
2022/07/20 08:38:13;;;;;;;3.85;2.03;;;;;;;40.51;20.29;99934.50;5073010;28;20199;-55
2022/07/20 08:40:40;;;;;;;4.38;1.95;;;;;;;40.16;19.99;99939.72;5072910;28;20195;-57
2022/07/20 08:43:07;;;;;;;4.30;2.00;;;;;;;39.97;20.30;99940.72;5072681;28;20195;-56
2022/07/20 08:45:35;;;;;;;2.20;1.98;;;;;;;39.58;19.75;99947.34;5072876;28;20206;-56
2022/07/20 08:48:07;;;;;;;7.43;2.13;;;;;;;38.98;21.02;99934.19;5072741;28;20323;-56
2022/07/20 08:50:34;;;;;;;5.07;2.00;;;;;;;38.54;21.33;99932.28;5072653;28;20731;-56
2022/07/20 08:53:01;;;;;;;8.60;2.15;;;;;;;38.05;21.60;99927.38;5072733;28;20199;-58
2022/07/20 08:55:30;;;;;;;6.72;2.13;;;;;;;37.83;21.72;99915.97;5072605;28;20207;-58
2022/07/20 08:57:57;;;;;;;1.75;1.65;;;;;;;36.66;22.12;99915.59;5072691;28;20201;-56
2022/07/20 09:00:24;;;;;;;3.95;1.80;;;;;;;36.38;22.70;99916.50;5083885;28;20294;-56
2022/07/20 09:02:56;;;;;;;7.63;2.20;;;;;;;36.46;22.90;99915.50;5072319;28;20196;-55
2022/07/20 09:05:28;;;;;;;3.28;2.30;;;;;;;35.84;22.99;99911.00;5072735;28;20235;-56
2022/07/20 09:07:57;;;;;;;3.92;2.13;;;;;;;35.94;22.84;99916.88;5072605;28;20195;-55
2022/07/20 09:10:26;;;;;;;8.68;2.75;;;;;;;35.91;22.75;99901.03;5072426;28;20227;-56
2022/07/20 09:12:56;;;;;;;2.00;1.90;;;;;;;36.06;22.77;99900.94;5077603;28;20251;-57
2022/07/20 09:15:34;;;;;;;3.45;2.03;;;;;;;36.53;22.59;99907.44;5072002;28;20242;-56
2022/07/20 09:18:10;;;;;;;2.55;1.83;;;;;;;36.55;22.08;99898.06;5075277;28;20219;-56
2022/07/20 09:20:42;;;;;;;3.90;1.90;;;;;;;36.41;22.21;99893.66;5087333;28;20227;-55
2022/07/20 09:23:10;;;;;;;4.55;1.80;;;;;;;36.64;21.90;99893.31;5080232;28;20212;-55
2022/07/20 09:25:38;;;;;;;6.45;1.80;;;;;;;36.41;22.06;99887.41;5072187;28;20200;-55
2022/07/20 09:28:05;;;;;;;1.73;1.63;;;;;;;36.71;21.63;99889.63;5072019;28;20196;-56
2022/07/20 09:30:32;;;;;;;4.78;2.33;;;;;;;36.70;22.00;99882.53;5072006;28;20731;-56
2022/07/20 09:33:01;;;;;;;4.22;2.00;;;;;;;36.62;22.49;99876.44;5072512;28;20195;-56
2022/07/20 09:35:31;;;;;;;5.78;2.33;;;;;;;36.88;22.47;99876.56;5072303;28;20705;-55
2022/07/20 09:38:02;;;;;;;5.68;2.15;;;;;;;36.68;22.13;99889.97;5072199;28;20200;-56
2022/07/20 09:40:39;;;;;;;4.30;2.10;;;;;;;36.60;22.48;99871.25;5071913;28;20196;-56
2022/07/20 09:43:05;;;;;;;2.50;2.05;;;;;;;36.83;22.26;99864.66;5071686;28;20202;-55
2022/07/20 09:45:33;;;;;;;9.02;2.38;;;;;;;36.75;22.73;99863.00;5071656;28;20238;-55
2022/07/20 09:48:09;;;;;;;2.17;1.98;;;;;;;36.56;22.25;99874.56;5071759;28;20224;-56
2022/07/20 09:50:38;;;;;;;3.58;2.20;;;;;;;36.50;22.32;99869.97;5071963;28;20608;-56
2022/07/20 09:53:09;;;;;;;4.10;2.10;;;;;;;36.98;22.37;99868.03;5090406;28;20207;-57
2022/07/20 09:55:37;;;;;;;1.90;1.80;;;;;;;36.97;22.42;99861.78;5091662;28;20210;-59
2022/07/20 09:58:05;;;;;;;3.50;2.15;;;;;;;37.27;22.35;99862.22;5091693;28;20558;-58
2022/07/20 10:00:34;;;;;;;4.90;2.40;;;;;;;37.56;21.99;99865.56;5085799;28;20720;-58
2022/07/20 10:03:02;;;;;;;2.72;1.63;;;;;;;37.05;21.83;99863.44;5071656;28;20208;-57
2022/07/20 10:05:31;;;;;;;2.55;2.15;;;;;;;36.71;22.34;99870.69;5071625;28;20695;-57
2022/07/20 10:08:03;;;;;;;2.40;2.20;;;;;;;36.26;22.45;99855.09;5071381;28;20257;-59
2022/07/20 10:10:32;;;;;;;3.50;1.80;;;;;;;36.25;22.39;99859.69;5071275;28;20330;-58
2022/07/20 10:13:00;;;;;;;2.10;1.90;;;;;;;35.85;22.96;99847.81;5071209;28;20200;-57
2022/07/20 10:15:33;;;;;;;2.80;2.60;;;;;;;35.90;23.05;99855.31;5071314;28;20595;-57
2022/07/20 10:18:01;;;;;;;3.38;2.40;;;;;;;35.35;23.62;99843.50;5071423;28;20705;-57
2022/07/20 10:20:33;;;;;;;3.97;3.00;;;;;;;35.49;23.85;99847.13;5071287;28;20568;-58
2022/07/20 10:23:32;;;;;;;3.20;2.30;;;;;;;35.18;23.74;99842.94;5070892;28;20203;-56
2022/07/20 10:26:01;;;;;;;1.75;1.60;;;;;;;34.43;24.55;99838.00;5071019;28;20203;-57
2022/07/20 10:28:33;;;;;;;4.35;2.30;;;;;;;33.86;25.62;99838.69;5071082;28;20203;-56
2022/07/20 10:31:04;;;;;;;4.55;2.10;;;;;;;33.60;25.39;99824.00;5070900;28;20238;-56
2022/07/20 10:33:34;;;;;;;4.50;2.10;;;;;;;33.74;25.60;99825.88;5070582;28;20196;-55
2022/07/20 10:38:58;;;;;;;5.32;2.65;;;;;;;33.95;25.37;99806.31;5070677;28;20207;-56
2022/07/20 10:41:36;;;;;;;5.38;3.10;;;;;;;33.69;25.62;99815.66;5070470;28;20206;-54
2022/07/20 10:44:28;;;;;;;3.60;2.80;;;;;;;33.86;25.85;99800.19;5070392;28;20257;-55
2022/07/20 10:46:55;;;;;;;3.42;2.38;;;;;;;33.64;25.52;99801.91;5070197;28;20199;-56
2022/07/20 10:50:02;;;;;;;3.60;3.28;;;;;;;33.79;25.75;99791.16;5070563;28;20200;-56
2022/07/20 10:52:34;;;;;;;6.70;2.40;;;;;;;33.94;25.71;99783.09;5070660;28;20721;-55
2022/07/20 10:55:01;;;;;;;5.20;2.55;;;;;;;33.68;25.77;99792.44;5070379;28;20200;-56
2022/07/20 10:57:31;;;;;;;4.20;2.85;;;;;;;33.36;25.75;99787.41;5070135;28;20257;-56
2022/07/20 11:00:07;;;;;;;3.25;2.15;;;;;;;33.31;25.98;99792.50;5070203;28;20660;-56
2022/07/20 11:02:34;;;;;;;2.65;2.10;;;;;;;33.16;25.93;99777.16;5070567;28;20191;-55
2022/07/20 11:05:01;;;;;;;4.00;2.33;;;;;;;33.25;26.46;99769.88;5070020;28;20382;-55
2022/07/20 11:07:33;;;;;;;3.22;2.03;;;;;;;33.47;26.20;99777.03;5070014;28;20291;-55
2022/07/20 11:10:01;;;;;;;5.10;3.10;;;;;;;33.39;27.20;99771.75;5070033;28;20725;-56
2022/07/20 11:12:30;;;;;;;5.55;3.28;;;;;;;33.49;27.50;99769.63;5070142;28;20200;-56
2022/07/20 11:14:58;;;;;;;3.10;2.58;;;;;;;33.65;26.39;99762.34;5069928;28;20204;-55
2022/07/20 11:17:25;;;;;;;4.00;2.15;;;;;;;33.63;25.98;99759.03;5069764;28;20294;-56
2022/07/20 11:19:52;;;;;;;2.63;2.30;;;;;;;33.64;26.18;99760.69;5070463;28;20291;-55
2022/07/20 11:22:19;;;;;;;2.58;2.38;;;;;;;33.78;25.67;99758.00;5069852;28;20192;-55
2022/07/20 11:24:55;;;;;;;4.65;2.40;;;;;;;33.97;25.35;99755.78;5069852;28;20211;-56
2022/07/20 11:27:23;;;;;;;4.63;2.63;;;;;;;33.68;26.40;99756.59;5069932;28;20677;-56
2022/07/20 11:29:52;;;;;;;2.38;2.17;;;;;;;33.33;26.53;99755.50;5069708;28;20203;-55
2022/07/20 11:32:20;;;;;;;2.20;2.10;;;;;;;33.09;26.74;99748.47;5069805;28;20200;-56
2022/07/20 11:34:49;;;;;;;2.35;2.15;;;;;;;33.18;26.60;99750.88;5069914;28;20283;-56
2022/07/20 11:37:17;;;;;;;3.13;1.85;;;;;;;33.49;26.53;99736.47;5069854;28;20257;-57
2022/07/20 11:39:45;;;;;;;6.40;2.30;;;;;;;33.52;26.82;99739.63;5069775;28;20196;-58
2022/07/20 11:42:13;;;;;;;2.13;1.90;;;;;;;33.61;26.19;99739.53;5069685;28;20594;-56